Murphy's Hourly Summary for Tuesday, March 14, 2017
Hour Temp
(f)
RH
(%)
Solar Rad.
(MJ/m2)
Rainfall
(in)
Wind
(mph)
3/14/2017 12:00 AM 44 44 0 0 0.84
3/14/2017 1:00 AM 42 49 0 0 0.56
3/14/2017 2:00 AM 40 53 0 0 0.16
3/14/2017 3:00 AM 39 56 0 0 0.74
3/14/2017 4:00 AM 38 57 0 0 0.01
3/14/2017 5:00 AM 37 62 0 0 0.04
3/14/2017 6:00 AM 37 63 0 0 0.11
3/14/2017 7:00 AM 36 66 0 0 0.25
3/14/2017 8:00 AM 35 68 0.03 0 0.19
3/14/2017 9:00 AM 38 61 0.45 0 0.93
3/14/2017 10:00 AM 43 48 1.12 0 2.77
3/14/2017 11:00 AM 46 42 1.86 0 2.71
3/14/2017 12:00 PM 48 40 2.54 0 2.4
3/14/2017 1:00 PM 51 37 2.97 0 2.36
3/14/2017 2:00 PM 54 32 3.19 0 2.16
3/14/2017 3:00 PM 56 32 3.06 0 2.48
3/14/2017 4:00 PM 58 30 2.86 0 3.41
3/14/2017 5:00 PM 59 30 2.24 0 3.87
3/14/2017 6:00 PM 60 31 1.17 0 2.7
3/14/2017 7:00 PM 59 32 0.14 0 1.91
3/14/2017 8:00 PM 57 37 0.03 0 0.86
3/14/2017 9:00 PM 55 39 0 0 0.55
3/14/2017 10:00 PM 53 49 0 0 0.55
3/14/2017 11:00 PM 53 50 0 0 1.49
Data Summary 47 46 21.66 0.00 1.42